sensor_id;sensor_type;location;lat;lon;timestamp;temperature;humidity
41294;DHT22;27037;52.010;4.446;2024-01-30T00:01:05;8.90;99.90
41294;DHT22;27037;52.010;4.446;2024-01-30T00:03:31;8.90;99.90
41294;DHT22;27037;52.010;4.446;2024-01-30T00:05:57;9.00;99.90
41294;DHT22;27037;52.010;4.446;2024-01-30T00:08:22;9.00;99.90
41294;DHT22;27037;52.010;4.446;2024-01-30T00:10:48;9.00;99.90
41294;DHT22;27037;52.010;4.446;2024-01-30T00:13:13;9.00;99.90
41294;DHT22;27037;52.010;4.446;2024-01-30T00:15:41;9.00;99.90
41294;DHT22;27037;52.010;4.446;2024-01-30T00:18:07;9.10;99.90
41294;DHT22;27037;52.010;4.446;2024-01-30T00:20:32;9.10;99.90
41294;DHT22;27037;52.010;4.446;2024-01-30T00:22:58;9.10;99.90
41294;DHT22;27037;52.010;4.446;2024-01-30T00:25:23;9.10;99.90
41294;DHT22;27037;52.010;4.446;2024-01-30T00:27:49;9.10;99.90
41294;DHT22;27037;52.010;4.446;2024-01-30T00:30:15;9.10;99.90
41294;DHT22;27037;52.010;4.446;2024-01-30T00:32:40;9.10;99.90
41294;DHT22;27037;52.010;4.446;2024-01-30T00:35:06;9.10;99.90
41294;DHT22;27037;52.010;4.446;2024-01-30T00:37:32;9.10;99.90
41294;DHT22;27037;52.010;4.446;2024-01-30T00:39:57;9.10;99.90
41294;DHT22;27037;52.010;4.446;2024-01-30T00:42:23;9.10;99.90
41294;DHT22;27037;52.010;4.446;2024-01-30T00:44:49;9.10;99.90
41294;DHT22;27037;52.010;4.446;2024-01-30T00:47:15;9.10;99.90
41294;DHT22;27037;52.010;4.446;2024-01-30T00:49:40;9.20;99.90
41294;DHT22;27037;52.010;4.446;2024-01-30T00:52:06;9.10;99.90
41294;DHT22;27037;52.010;4.446;2024-01-30T00:54:32;9.20;99.90
41294;DHT22;27037;52.010;4.446;2024-01-30T00:56:57;9.20;99.90
41294;DHT22;27037;52.010;4.446;2024-01-30T00:59:23;9.10;99.90
41294;DHT22;27037;52.010;4.446;2024-01-30T01:01:48;9.20;99.90
41294;DHT22;27037;52.010;4.446;2024-01-30T01:04:14;9.10;99.90
41294;DHT22;27037;52.010;4.446;2024-01-30T01:06:39;9.10;99.90
41294;DHT22;27037;52.010;4.446;2024-01-30T01:09:08;9.10;99.90
41294;DHT22;27037;52.010;4.446;2024-01-30T01:11:33;9.10;99.90
41294;DHT22;27037;52.010;4.446;2024-01-30T01:13:59;9.10;99.90
41294;DHT22;27037;52.010;4.446;2024-01-30T01:16:24;9.10;99.90
41294;DHT22;27037;52.010;4.446;2024-01-30T01:18:50;9.10;99.90
41294;DHT22;27037;52.010;4.446;2024-01-30T01:21:15;9.10;99.90
41294;DHT22;27037;52.010;4.446;2024-01-30T01:23:41;9.00;99.90
41294;DHT22;27037;52.010;4.446;2024-01-30T01:26:08;9.00;99.90
41294;DHT22;27037;52.010;4.446;2024-01-30T01:28:35;9.00;99.90
41294;DHT22;27037;52.010;4.446;2024-01-30T01:31:00;9.00;99.90
41294;DHT22;27037;52.010;4.446;2024-01-30T01:33:31;9.00;99.90
41294;DHT22;27037;52.010;4.446;2024-01-30T01:35:58;9.00;99.90
41294;DHT22;27037;52.010;4.446;2024-01-30T01:38:24;9.00;99.90
41294;DHT22;27037;52.010;4.446;2024-01-30T01:40:49;9.00;99.90
41294;DHT22;27037;52.010;4.446;2024-01-30T01:43:16;9.00;99.90
41294;DHT22;27037;52.010;4.446;2024-01-30T01:45:42;9.00;99.90
41294;DHT22;27037;52.010;4.446;2024-01-30T01:48:07;9.00;99.90
41294;DHT22;27037;52.010;4.446;2024-01-30T01:50:34;9.00;99.90
41294;DHT22;27037;52.010;4.446;2024-01-30T01:53:01;9.00;99.90
41294;DHT22;27037;52.010;4.446;2024-01-30T01:55:29;9.00;99.90
41294;DHT22;27037;52.010;4.446;2024-01-30T01:57:55;9.00;99.90
41294;DHT22;27037;52.010;4.446;2024-01-30T02:00:21;9.00;99.90
41294;DHT22;27037;52.010;4.446;2024-01-30T02:02:47;9.00;99.90
41294;DHT22;27037;52.010;4.446;2024-01-30T02:05:14;9.00;99.90
41294;DHT22;27037;52.010;4.446;2024-01-30T02:07:39;9.00;99.90
41294;DHT22;27037;52.010;4.446;2024-01-30T02:10:07;9.00;99.90
41294;DHT22;27037;52.010;4.446;2024-01-30T02:12:32;9.00;99.90
41294;DHT22;27037;52.010;4.446;2024-01-30T02:14:58;9.00;99.90
41294;DHT22;27037;52.010;4.446;2024-01-30T02:17:24;9.10;99.90
41294;DHT22;27037;52.010;4.446;2024-01-30T02:19:49;9.10;99.90
41294;DHT22;27037;52.010;4.446;2024-01-30T02:22:15;9.10;99.90
41294;DHT22;27037;52.010;4.446;2024-01-30T02:24:41;9.20;99.90
41294;DHT22;27037;52.010;4.446;2024-01-30T02:27:07;9.20;99.90
41294;DHT22;27037;52.010;4.446;2024-01-30T02:29:32;9.20;99.90
41294;DHT22;27037;52.010;4.446;2024-01-30T02:31:58;9.20;99.90
41294;DHT22;27037;52.010;4.446;2024-01-30T02:34:24;9.30;99.90
41294;DHT22;27037;52.010;4.446;2024-01-30T02:36:50;9.30;99.90
41294;DHT22;27037;52.010;4.446;2024-01-30T02:39:15;9.30;99.90
41294;DHT22;27037;52.010;4.446;2024-01-30T02:41:41;9.30;99.90
41294;DHT22;27037;52.010;4.446;2024-01-30T02:44:06;9.30;99.90
41294;DHT22;27037;52.010;4.446;2024-01-30T02:46:32;9.30;99.90
41294;DHT22;27037;52.010;4.446;2024-01-30T02:48:57;9.30;99.90
41294;DHT22;27037;52.010;4.446;2024-01-30T02:51:23;9.30;99.90
41294;DHT22;27037;52.010;4.446;2024-01-30T02:53:49;9.30;99.90
41294;DHT22;27037;52.010;4.446;2024-01-30T02:56:14;9.30;99.90
41294;DHT22;27037;52.010;4.446;2024-01-30T02:58:40;9.30;99.90
41294;DHT22;27037;52.010;4.446;2024-01-30T03:01:06;9.30;99.90
41294;DHT22;27037;52.010;4.446;2024-01-30T03:03:32;9.20;99.90
41294;DHT22;27037;52.010;4.446;2024-01-30T03:06:00;9.30;99.90
41294;DHT22;27037;52.010;4.446;2024-01-30T03:08:26;9.20;99.90
41294;DHT22;27037;52.010;4.446;2024-01-30T03:10:51;9.20;99.90
41294;DHT22;27037;52.010;4.446;2024-01-30T03:15:52;9.30;99.90
41294;DHT22;27037;52.010;4.446;2024-01-30T03:18:18;9.30;99.90
41294;DHT22;27037;52.010;4.446;2024-01-30T03:20:44;9.30;99.90
41294;DHT22;27037;52.010;4.446;2024-01-30T03:23:10;9.30;99.90
41294;DHT22;27037;52.010;4.446;2024-01-30T03:25:35;9.30;99.90
41294;DHT22;27037;52.010;4.446;2024-01-30T03:28:01;9.30;99.90
41294;DHT22;27037;52.010;4.446;2024-01-30T03:30:26;9.40;99.90
41294;DHT22;27037;52.010;4.446;2024-01-30T03:32:52;9.30;99.90
41294;DHT22;27037;52.010;4.446;2024-01-30T03:35:19;9.30;99.90
41294;DHT22;27037;52.010;4.446;2024-01-30T03:37:44;9.40;99.90
41294;DHT22;27037;52.010;4.446;2024-01-30T03:40:10;9.40;99.90
41294;DHT22;27037;52.010;4.446;2024-01-30T03:42:36;9.30;99.90
41294;DHT22;27037;52.010;4.446;2024-01-30T03:45:02;9.40;99.90
41294;DHT22;27037;52.010;4.446;2024-01-30T03:47:27;9.30;99.90
41294;DHT22;27037;52.010;4.446;2024-01-30T03:49:53;9.40;99.90
41294;DHT22;27037;52.010;4.446;2024-01-30T03:52:19;9.30;99.90
41294;DHT22;27037;52.010;4.446;2024-01-30T03:54:44;9.40;99.90
41294;DHT22;27037;52.010;4.446;2024-01-30T03:57:10;9.40;99.90
41294;DHT22;27037;52.010;4.446;2024-01-30T03:59:36;9.40;99.90
41294;DHT22;27037;52.010;4.446;2024-01-30T04:02:01;9.40;99.90
41294;DHT22;27037;52.010;4.446;2024-01-30T04:04:27;9.40;99.90
41294;DHT22;27037;52.010;4.446;2024-01-30T04:06:52;9.40;99.90
41294;DHT22;27037;52.010;4.446;2024-01-30T04:09:18;9.40;99.90
41294;DHT22;27037;52.010;4.446;2024-01-30T04:11:44;9.40;99.90
41294;DHT22;27037;52.010;4.446;2024-01-30T04:14:10;9.40;99.90
41294;DHT22;27037;52.010;4.446;2024-01-30T04:16:35;9.40;99.90
41294;DHT22;27037;52.010;4.446;2024-01-30T04:19:01;9.40;99.90
41294;DHT22;27037;52.010;4.446;2024-01-30T04:21:27;9.40;99.90
41294;DHT22;27037;52.010;4.446;2024-01-30T04:23:53;9.40;99.90
41294;DHT22;27037;52.010;4.446;2024-01-30T04:26:18;9.40;99.90
41294;DHT22;27037;52.010;4.446;2024-01-30T04:28:45;9.40;99.90
41294;DHT22;27037;52.010;4.446;2024-01-30T04:31:11;9.40;99.90
41294;DHT22;27037;52.010;4.446;2024-01-30T04:33:37;9.40;99.90
41294;DHT22;27037;52.010;4.446;2024-01-30T04:36:03;9.40;99.90
41294;DHT22;27037;52.010;4.446;2024-01-30T04:38:29;9.40;99.90
41294;DHT22;27037;52.010;4.446;2024-01-30T04:40:54;9.40;99.90
41294;DHT22;27037;52.010;4.446;2024-01-30T04:43:20;9.40;99.90
41294;DHT22;27037;52.010;4.446;2024-01-30T04:45:47;9.40;99.90
41294;DHT22;27037;52.010;4.446;2024-01-30T04:48:12;9.40;99.90
41294;DHT22;27037;52.010;4.446;2024-01-30T04:50:38;9.40;99.90
41294;DHT22;27037;52.010;4.446;2024-01-30T04:53:03;9.40;99.90
41294;DHT22;27037;52.010;4.446;2024-01-30T04:55:29;9.40;99.90
41294;DHT22;27037;52.010;4.446;2024-01-30T04:57:54;9.40;99.90
41294;DHT22;27037;52.010;4.446;2024-01-30T05:00:20;9.40;99.90
41294;DHT22;27037;52.010;4.446;2024-01-30T05:02:46;9.50;99.90
41294;DHT22;27037;52.010;4.446;2024-01-30T05:05:11;9.50;99.90
41294;DHT22;27037;52.010;4.446;2024-01-30T05:07:38;9.50;99.90
41294;DHT22;27037;52.010;4.446;2024-01-30T05:10:04;9.50;99.90
41294;DHT22;27037;52.010;4.446;2024-01-30T05:12:30;9.50;99.90
41294;DHT22;27037;52.010;4.446;2024-01-30T05:14:55;9.50;99.90
41294;DHT22;27037;52.010;4.446;2024-01-30T05:17:21;9.50;99.90
41294;DHT22;27037;52.010;4.446;2024-01-30T05:19:46;9.50;99.90
41294;DHT22;27037;52.010;4.446;2024-01-30T05:22:12;9.50;99.90
41294;DHT22;27037;52.010;4.446;2024-01-30T05:24:44;9.60;99.90
41294;DHT22;27037;52.010;4.446;2024-01-30T05:27:09;9.60;99.90
41294;DHT22;27037;52.010;4.446;2024-01-30T05:29:35;9.60;99.90
41294;DHT22;27037;52.010;4.446;2024-01-30T05:32:01;9.60;99.90
41294;DHT22;27037;52.010;4.446;2024-01-30T05:34:27;9.60;99.90
41294;DHT22;27037;52.010;4.446;2024-01-30T05:36:52;9.60;99.90
41294;DHT22;27037;52.010;4.446;2024-01-30T05:39:18;9.60;99.90
41294;DHT22;27037;52.010;4.446;2024-01-30T05:41:44;9.60;99.90
41294;DHT22;27037;52.010;4.446;2024-01-30T05:44:09;9.60;99.90
41294;DHT22;27037;52.010;4.446;2024-01-30T05:46:35;9.60;99.90
41294;DHT22;27037;52.010;4.446;2024-01-30T05:49:01;9.60;99.90
41294;DHT22;27037;52.010;4.446;2024-01-30T05:51:26;9.70;99.90
41294;DHT22;27037;52.010;4.446;2024-01-30T05:53:53;9.70;99.90
41294;DHT22;27037;52.010;4.446;2024-01-30T05:56:19;9.70;99.90
41294;DHT22;27037;52.010;4.446;2024-01-30T05:58:44;9.70;99.90
41294;DHT22;27037;52.010;4.446;2024-01-30T06:01:10;9.70;99.90
41294;DHT22;27037;52.010;4.446;2024-01-30T06:03:35;9.70;99.90
41294;DHT22;27037;52.010;4.446;2024-01-30T06:06:01;9.70;99.90
41294;DHT22;27037;52.010;4.446;2024-01-30T06:08:27;9.70;99.90
41294;DHT22;27037;52.010;4.446;2024-01-30T06:10:52;9.70;99.90
41294;DHT22;27037;52.010;4.446;2024-01-30T06:13:18;9.80;99.90
41294;DHT22;27037;52.010;4.446;2024-01-30T06:15:44;9.80;99.90
41294;DHT22;27037;52.010;4.446;2024-01-30T06:18:09;9.80;99.90
41294;DHT22;27037;52.010;4.446;2024-01-30T06:20:36;9.80;99.90
41294;DHT22;27037;52.010;4.446;2024-01-30T06:23:02;9.80;99.90
41294;DHT22;27037;52.010;4.446;2024-01-30T06:25:28;9.90;99.90
41294;DHT22;27037;52.010;4.446;2024-01-30T06:27:54;9.90;99.90
41294;DHT22;27037;52.010;4.446;2024-01-30T06:30:19;9.90;99.90
41294;DHT22;27037;52.010;4.446;2024-01-30T06:32:45;9.90;99.90
41294;DHT22;27037;52.010;4.446;2024-01-30T06:35:11;9.90;99.90
41294;DHT22;27037;52.010;4.446;2024-01-30T06:37:36;9.90;99.90
41294;DHT22;27037;52.010;4.446;2024-01-30T06:40:02;9.90;99.90
41294;DHT22;27037;52.010;4.446;2024-01-30T06:42:30;10.00;99.90
41294;DHT22;27037;52.010;4.446;2024-01-30T06:44:55;10.00;99.90
41294;DHT22;27037;52.010;4.446;2024-01-30T06:47:21;10.00;99.90
41294;DHT22;27037;52.010;4.446;2024-01-30T06:49:46;10.00;99.90
41294;DHT22;27037;52.010;4.446;2024-01-30T06:52:12;10.00;99.90
41294;DHT22;27037;52.010;4.446;2024-01-30T06:54:38;10.10;99.90
41294;DHT22;27037;52.010;4.446;2024-01-30T06:57:03;10.10;99.90
41294;DHT22;27037;52.010;4.446;2024-01-30T06:59:29;10.10;99.90
41294;DHT22;27037;52.010;4.446;2024-01-30T07:01:55;10.10;99.90
41294;DHT22;27037;52.010;4.446;2024-01-30T07:04:20;10.20;99.90
41294;DHT22;27037;52.010;4.446;2024-01-30T07:06:46;10.10;99.90
41294;DHT22;27037;52.010;4.446;2024-01-30T07:09:12;10.10;99.90
41294;DHT22;27037;52.010;4.446;2024-01-30T07:11:39;10.20;99.90
41294;DHT22;27037;52.010;4.446;2024-01-30T07:14:04;10.20;99.90
41294;DHT22;27037;52.010;4.446;2024-01-30T07:16:30;10.20;99.90
41294;DHT22;27037;52.010;4.446;2024-01-30T07:18:56;10.30;99.90
41294;DHT22;27037;52.010;4.446;2024-01-30T07:21:22;10.30;99.90
41294;DHT22;27037;52.010;4.446;2024-01-30T07:23:53;10.30;99.90
41294;DHT22;27037;52.010;4.446;2024-01-30T07:26:19;10.30;99.90
41294;DHT22;27037;52.010;4.446;2024-01-30T07:28:44;10.40;99.90
41294;DHT22;27037;52.010;4.446;2024-01-30T07:31:10;10.30;99.90
41294;DHT22;27037;52.010;4.446;2024-01-30T07:33:35;10.40;99.90
41294;DHT22;27037;52.010;4.446;2024-01-30T07:36:01;10.40;99.90
41294;DHT22;27037;52.010;4.446;2024-01-30T07:38:27;10.40;99.90
41294;DHT22;27037;52.010;4.446;2024-01-30T07:40:52;10.50;99.90
41294;DHT22;27037;52.010;4.446;2024-01-30T07:43:18;10.60;99.90
41294;DHT22;27037;52.010;4.446;2024-01-30T07:45:45;10.60;99.90
41294;DHT22;27037;52.010;4.446;2024-01-30T07:48:11;10.70;99.90
41294;DHT22;27037;52.010;4.446;2024-01-30T07:50:36;10.80;99.90
41294;DHT22;27037;52.010;4.446;2024-01-30T07:53:02;10.80;99.90
41294;DHT22;27037;52.010;4.446;2024-01-30T07:55:27;10.90;99.90
41294;DHT22;27037;52.010;4.446;2024-01-30T07:57:55;10.90;99.90
41294;DHT22;27037;52.010;4.446;2024-01-30T08:00:21;10.90;99.90
41294;DHT22;27037;52.010;4.446;2024-01-30T08:02:53;11.00;99.90
41294;DHT22;27037;52.010;4.446;2024-01-30T08:05:20;11.00;99.90
41294;DHT22;27037;52.010;4.446;2024-01-30T08:07:48;11.00;99.90
41294;DHT22;27037;52.010;4.446;2024-01-30T08:10:14;11.00;99.90
41294;DHT22;27037;52.010;4.446;2024-01-30T08:12:40;11.00;99.90
41294;DHT22;27037;52.010;4.446;2024-01-30T08:15:06;11.00;99.90
41294;DHT22;27037;52.010;4.446;2024-01-30T08:17:32;11.00;99.90
41294;DHT22;27037;52.010;4.446;2024-01-30T08:19:58;11.00;99.90
41294;DHT22;27037;52.010;4.446;2024-01-30T08:22:24;10.90;99.90
41294;DHT22;27037;52.010;4.446;2024-01-30T08:24:50;10.90;99.90
41294;DHT22;27037;52.010;4.446;2024-01-30T08:27:15;10.90;99.90
41294;DHT22;27037;52.010;4.446;2024-01-30T08:29:41;10.90;99.90
41294;DHT22;27037;52.010;4.446;2024-01-30T08:32:07;10.90;99.90
41294;DHT22;27037;52.010;4.446;2024-01-30T08:34:33;10.90;99.90
41294;DHT22;27037;52.010;4.446;2024-01-30T08:36:58;10.90;99.90
41294;DHT22;27037;52.010;4.446;2024-01-30T08:39:24;10.90;99.90
41294;DHT22;27037;52.010;4.446;2024-01-30T08:41:50;10.90;99.90
41294;DHT22;27037;52.010;4.446;2024-01-30T08:44:16;10.90;99.90
41294;DHT22;27037;52.010;4.446;2024-01-30T08:46:43;11.00;99.90
41294;DHT22;27037;52.010;4.446;2024-01-30T08:49:10;11.00;99.90
41294;DHT22;27037;52.010;4.446;2024-01-30T08:51:35;11.00;99.90
41294;DHT22;27037;52.010;4.446;2024-01-30T08:54:01;11.00;99.90
41294;DHT22;27037;52.010;4.446;2024-01-30T08:56:27;11.00;99.90
41294;DHT22;27037;52.010;4.446;2024-01-30T08:58:53;11.00;99.90
41294;DHT22;27037;52.010;4.446;2024-01-30T09:01:18;11.00;99.90
41294;DHT22;27037;52.010;4.446;2024-01-30T09:03:44;11.00;99.90
41294;DHT22;27037;52.010;4.446;2024-01-30T09:06:11;11.00;99.90
41294;DHT22;27037;52.010;4.446;2024-01-30T09:08:37;11.00;99.90
41294;DHT22;27037;52.010;4.446;2024-01-30T09:11:12;11.00;99.90
41294;DHT22;27037;52.010;4.446;2024-01-30T09:13:38;11.00;99.90
41294;DHT22;27037;52.010;4.446;2024-01-30T09:16:04;11.00;99.90
41294;DHT22;27037;52.010;4.446;2024-01-30T09:18:30;11.00;99.90
41294;DHT22;27037;52.010;4.446;2024-01-30T09:20:55;11.00;99.90
41294;DHT22;27037;52.010;4.446;2024-01-30T09:23:21;10.90;99.90
41294;DHT22;27037;52.010;4.446;2024-01-30T09:25:47;10.90;99.90
41294;DHT22;27037;52.010;4.446;2024-01-30T09:28:13;10.90;99.90
41294;DHT22;27037;52.010;4.446;2024-01-30T09:30:38;10.90;99.90
41294;DHT22;27037;52.010;4.446;2024-01-30T09:33:04;10.80;99.90
41294;DHT22;27037;52.010;4.446;2024-01-30T09:35:30;10.80;99.90
41294;DHT22;27037;52.010;4.446;2024-01-30T09:37:56;10.80;99.90
41294;DHT22;27037;52.010;4.446;2024-01-30T09:40:22;10.70;99.90
41294;DHT22;27037;52.010;4.446;2024-01-30T09:42:50;10.70;99.90
41294;DHT22;27037;52.010;4.446;2024-01-30T09:45:18;10.70;99.90
41294;DHT22;27037;52.010;4.446;2024-01-30T09:47:45;10.60;99.90
41294;DHT22;27037;52.010;4.446;2024-01-30T09:50:12;10.50;99.90
41294;DHT22;27037;52.010;4.446;2024-01-30T09:52:39;10.50;99.90
41294;DHT22;27037;52.010;4.446;2024-01-30T09:55:06;10.50;99.90
41294;DHT22;27037;52.010;4.446;2024-01-30T09:57:32;10.50;99.90
41294;DHT22;27037;52.010;4.446;2024-01-30T09:59:57;10.40;99.90
41294;DHT22;27037;52.010;4.446;2024-01-30T10:02:23;10.40;99.90
41294;DHT22;27037;52.010;4.446;2024-01-30T10:04:50;10.40;99.90
41294;DHT22;27037;52.010;4.446;2024-01-30T10:07:16;10.30;99.90
41294;DHT22;27037;52.010;4.446;2024-01-30T10:09:42;10.30;99.90
41294;DHT22;27037;52.010;4.446;2024-01-30T10:12:11;10.30;99.90
41294;DHT22;27037;52.010;4.446;2024-01-30T10:14:40;10.20;99.90
41294;DHT22;27037;52.010;4.446;2024-01-30T10:17:10;10.20;99.90
41294;DHT22;27037;52.010;4.446;2024-01-30T10:19:36;10.10;99.90
41294;DHT22;27037;52.010;4.446;2024-01-30T10:22:05;10.20;99.90
41294;DHT22;27037;52.010;4.446;2024-01-30T10:24:31;10.10;99.90
41294;DHT22;27037;52.010;4.446;2024-01-30T10:26:58;10.10;99.90
41294;DHT22;27037;52.010;4.446;2024-01-30T10:29:24;10.10;99.90
41294;DHT22;27037;52.010;4.446;2024-01-30T10:32:02;10.10;99.90
41294;DHT22;27037;52.010;4.446;2024-01-30T10:34:28;10.00;99.90
41294;DHT22;27037;52.010;4.446;2024-01-30T10:37:08;10.00;99.90
41294;DHT22;27037;52.010;4.446;2024-01-30T10:39:46;10.00;99.90
41294;DHT22;27037;52.010;4.446;2024-01-30T10:42:13;9.90;99.90
41294;DHT22;27037;52.010;4.446;2024-01-30T10:44:49;9.90;99.90
41294;DHT22;27037;52.010;4.446;2024-01-30T10:47:20;9.80;99.90
41294;DHT22;27037;52.010;4.446;2024-01-30T10:49:48;9.80;99.90
41294;DHT22;27037;52.010;4.446;2024-01-30T10:52:14;9.80;99.90
41294;DHT22;27037;52.010;4.446;2024-01-30T10:54:44;9.70;99.90
41294;DHT22;27037;52.010;4.446;2024-01-30T10:57:11;9.70;99.90
41294;DHT22;27037;52.010;4.446;2024-01-30T10:59:38;9.60;99.90
41294;DHT22;27037;52.010;4.446;2024-01-30T11:02:05;9.60;99.90
41294;DHT22;27037;52.010;4.446;2024-01-30T11:04:38;9.60;99.90
41294;DHT22;27037;52.010;4.446;2024-01-30T11:07:17;9.60;99.90
41294;DHT22;27037;52.010;4.446;2024-01-30T11:09:50;9.60;99.90
41294;DHT22;27037;52.010;4.446;2024-01-30T11:12:16;9.50;99.90
41294;DHT22;27037;52.010;4.446;2024-01-30T11:14:42;9.50;99.90
41294;DHT22;27037;52.010;4.446;2024-01-30T11:17:09;9.40;99.90
41294;DHT22;27037;52.010;4.446;2024-01-30T11:19:37;9.40;99.90
41294;DHT22;27037;52.010;4.446;2024-01-30T11:22:03;9.30;99.90
41294;DHT22;27037;52.010;4.446;2024-01-30T11:24:30;9.20;99.90
41294;DHT22;27037;52.010;4.446;2024-01-30T11:26:56;9.20;99.90
41294;DHT22;27037;52.010;4.446;2024-01-30T11:29:28;9.10;99.90
41294;DHT22;27037;52.010;4.446;2024-01-30T11:31:54;9.10;99.90
41294;DHT22;27037;52.010;4.446;2024-01-30T11:34:21;9.10;99.90
41294;DHT22;27037;52.010;4.446;2024-01-30T11:36:59;9.20;99.90
41294;DHT22;27037;52.010;4.446;2024-01-30T11:39:25;9.20;99.90
41294;DHT22;27037;52.010;4.446;2024-01-30T11:41:54;9.20;99.90
41294;DHT22;27037;52.010;4.446;2024-01-30T11:44:20;9.20;99.90
41294;DHT22;27037;52.010;4.446;2024-01-30T11:46:50;9.20;99.90
41294;DHT22;27037;52.010;4.446;2024-01-30T11:49:19;9.20;99.90
41294;DHT22;27037;52.010;4.446;2024-01-30T11:51:47;9.20;99.90
41294;DHT22;27037;52.010;4.446;2024-01-30T11:54:17;9.20;99.90
41294;DHT22;27037;52.010;4.446;2024-01-30T11:56:43;9.20;99.90
41294;DHT22;27037;52.010;4.446;2024-01-30T11:59:08;9.20;99.90
41294;DHT22;27037;52.010;4.446;2024-01-30T12:01:34;9.10;99.90
41294;DHT22;27037;52.010;4.446;2024-01-30T12:04:00;9.20;99.90
41294;DHT22;27037;52.010;4.446;2024-01-30T12:06:26;9.10;99.90
41294;DHT22;27037;52.010;4.446;2024-01-30T12:09:02;9.10;99.90
41294;DHT22;27037;52.010;4.446;2024-01-30T12:11:44;9.10;99.90
41294;DHT22;27037;52.010;4.446;2024-01-30T12:14:09;9.10;99.90
41294;DHT22;27037;52.010;4.446;2024-01-30T12:16:35;9.10;99.90
41294;DHT22;27037;52.010;4.446;2024-01-30T12:19:01;9.10;99.90
41294;DHT22;27037;52.010;4.446;2024-01-30T12:21:28;9.10;99.90
41294;DHT22;27037;52.010;4.446;2024-01-30T12:23:54;9.10;99.90
41294;DHT22;27037;52.010;4.446;2024-01-30T12:26:21;9.10;99.90
41294;DHT22;27037;52.010;4.446;2024-01-30T12:28:50;9.10;99.90
41294;DHT22;27037;52.010;4.446;2024-01-30T12:31:16;9.00;99.90
41294;DHT22;27037;52.010;4.446;2024-01-30T12:33:41;8.90;99.90
41294;DHT22;27037;52.010;4.446;2024-01-30T12:36:07;9.00;99.90
41294;DHT22;27037;52.010;4.446;2024-01-30T12:38:33;8.90;99.90
41294;DHT22;27037;52.010;4.446;2024-01-30T12:40:59;8.90;99.90
41294;DHT22;27037;52.010;4.446;2024-01-30T12:43:25;8.90;99.90
41294;DHT22;27037;52.010;4.446;2024-01-30T12:45:52;8.90;99.90
41294;DHT22;27037;52.010;4.446;2024-01-30T12:48:18;8.90;99.90
41294;DHT22;27037;52.010;4.446;2024-01-30T12:50:43;8.90;99.90
41294;DHT22;27037;52.010;4.446;2024-01-30T12:53:09;8.80;99.90
41294;DHT22;27037;52.010;4.446;2024-01-30T12:55:35;8.90;99.90
41294;DHT22;27037;52.010;4.446;2024-01-30T12:58:01;8.80;99.90
41294;DHT22;27037;52.010;4.446;2024-01-30T13:00:27;8.80;99.90
41294;DHT22;27037;52.010;4.446;2024-01-30T13:02:53;8.90;99.90
41294;DHT22;27037;52.010;4.446;2024-01-30T13:05:18;8.80;99.90
41294;DHT22;27037;52.010;4.446;2024-01-30T13:07:44;8.80;99.90
41294;DHT22;27037;52.010;4.446;2024-01-30T13:10:10;8.80;99.90
41294;DHT22;27037;52.010;4.446;2024-01-30T13:12:36;8.80;99.90
41294;DHT22;27037;52.010;4.446;2024-01-30T13:15:04;8.80;99.90
41294;DHT22;27037;52.010;4.446;2024-01-30T13:17:31;8.70;99.90
41294;DHT22;27037;52.010;4.446;2024-01-30T13:19:56;8.70;99.90
41294;DHT22;27037;52.010;4.446;2024-01-30T13:22:23;8.60;99.90
41294;DHT22;27037;52.010;4.446;2024-01-30T13:24:50;8.70;99.90
41294;DHT22;27037;52.010;4.446;2024-01-30T13:27:16;8.60;99.90
41294;DHT22;27037;52.010;4.446;2024-01-30T13:29:41;8.60;99.90
41294;DHT22;27037;52.010;4.446;2024-01-30T13:32:07;8.60;99.90
41294;DHT22;27037;52.010;4.446;2024-01-30T13:34:33;8.60;99.90
41294;DHT22;27037;52.010;4.446;2024-01-30T13:36:58;8.60;99.90
41294;DHT22;27037;52.010;4.446;2024-01-30T13:39:25;8.60;99.90
41294;DHT22;27037;52.010;4.446;2024-01-30T13:41:50;8.50;99.90
41294;DHT22;27037;52.010;4.446;2024-01-30T13:44:16;8.60;99.90
41294;DHT22;27037;52.010;4.446;2024-01-30T13:46:43;8.60;99.90
41294;DHT22;27037;52.010;4.446;2024-01-30T13:49:10;8.60;99.90
41294;DHT22;27037;52.010;4.446;2024-01-30T13:51:36;8.60;99.90
41294;DHT22;27037;52.010;4.446;2024-01-30T13:54:01;8.60;99.90
41294;DHT22;27037;52.010;4.446;2024-01-30T13:56:27;8.50;99.90
41294;DHT22;27037;52.010;4.446;2024-01-30T13:58:53;8.50;99.90
41294;DHT22;27037;52.010;4.446;2024-01-30T14:01:18;8.50;99.90
41294;DHT22;27037;52.010;4.446;2024-01-30T14:03:44;8.50;99.90
41294;DHT22;27037;52.010;4.446;2024-01-30T14:06:11;8.50;99.90
41294;DHT22;27037;52.010;4.446;2024-01-30T14:08:37;8.50;99.90
41294;DHT22;27037;52.010;4.446;2024-01-30T14:11:02;8.50;99.90
41294;DHT22;27037;52.010;4.446;2024-01-30T14:13:28;8.50;99.90
41294;DHT22;27037;52.010;4.446;2024-01-30T14:15:56;8.50;99.90
41294;DHT22;27037;52.010;4.446;2024-01-30T14:18:21;8.50;99.90
41294;DHT22;27037;52.010;4.446;2024-01-30T14:20:47;8.40;99.90
41294;DHT22;27037;52.010;4.446;2024-01-30T14:23:13;8.40;99.90
41294;DHT22;27037;52.010;4.446;2024-01-30T14:25:38;8.40;99.90
41294;DHT22;27037;52.010;4.446;2024-01-30T14:28:04;8.40;99.90
41294;DHT22;27037;52.010;4.446;2024-01-30T14:30:30;8.40;99.90
41294;DHT22;27037;52.010;4.446;2024-01-30T14:32:55;8.40;99.90
41294;DHT22;27037;52.010;4.446;2024-01-30T14:35:21;8.40;99.90
41294;DHT22;27037;52.010;4.446;2024-01-30T14:37:47;8.40;99.90
41294;DHT22;27037;52.010;4.446;2024-01-30T14:40:13;8.40;99.90
41294;DHT22;27037;52.010;4.446;2024-01-30T14:42:38;8.40;99.90
41294;DHT22;27037;52.010;4.446;2024-01-30T14:45:05;8.40;99.90
41294;DHT22;27037;52.010;4.446;2024-01-30T14:47:31;8.40;99.90
41294;DHT22;27037;52.010;4.446;2024-01-30T14:49:57;8.40;99.90
41294;DHT22;27037;52.010;4.446;2024-01-30T14:52:23;8.40;99.90
41294;DHT22;27037;52.010;4.446;2024-01-30T14:54:48;8.40;99.90
41294;DHT22;27037;52.010;4.446;2024-01-30T14:57:14;8.40;99.90
41294;DHT22;27037;52.010;4.446;2024-01-30T14:59:40;8.40;99.90
41294;DHT22;27037;52.010;4.446;2024-01-30T15:02:06;8.40;99.90
41294;DHT22;27037;52.010;4.446;2024-01-30T15:04:31;8.40;99.90
41294;DHT22;27037;52.010;4.446;2024-01-30T15:06:57;8.40;99.90
41294;DHT22;27037;52.010;4.446;2024-01-30T15:09:23;8.40;99.90
41294;DHT22;27037;52.010;4.446;2024-01-30T15:11:49;8.40;99.90
41294;DHT22;27037;52.010;4.446;2024-01-30T15:14:15;8.40;99.90
41294;DHT22;27037;52.010;4.446;2024-01-30T15:16:41;8.40;99.90
41294;DHT22;27037;52.010;4.446;2024-01-30T15:19:08;8.40;99.90
41294;DHT22;27037;52.010;4.446;2024-01-30T15:21:33;8.40;99.90
41294;DHT22;27037;52.010;4.446;2024-01-30T15:23:59;8.40;99.90
41294;DHT22;27037;52.010;4.446;2024-01-30T15:26:25;8.50;99.90
41294;DHT22;27037;52.010;4.446;2024-01-30T15:28:51;8.50;99.90
41294;DHT22;27037;52.010;4.446;2024-01-30T15:31:17;8.40;99.90
41294;DHT22;27037;52.010;4.446;2024-01-30T15:33:42;8.40;99.90
41294;DHT22;27037;52.010;4.446;2024-01-30T15:36:08;8.50;99.90
41294;DHT22;27037;52.010;4.446;2024-01-30T15:38:36;8.40;99.90